createdAt,value
2023-03-03T08:08:36.842Z,3.58
2023-03-03T08:11:51.375Z,3.60
2023-03-03T08:14:55.325Z,3.60
2023-03-03T08:17:57.086Z,3.95
2023-03-03T08:21:18.985Z,9.25
2023-03-03T08:24:20.506Z,16.33
2023-03-03T08:27:22.032Z,21.52
2023-03-03T08:30:23.566Z,28.17
2023-03-03T08:33:25.118Z,34.15
2023-03-03T08:36:26.654Z,42.20
2023-03-03T08:39:28.140Z,45.30
2023-03-03T08:42:30.106Z,49.85
2023-03-03T08:45:31.799Z,54.92
2023-03-03T08:48:33.996Z,64.63
2023-03-03T08:51:35.702Z,68.68
2023-03-03T08:54:37.426Z,73.10
2023-03-03T08:57:39.422Z,73.43
2023-03-03T09:00:41.023Z,76.05
2023-03-03T09:03:43.713Z,74.43
2023-03-03T09:06:45.203Z,73.57
2023-03-03T09:09:47.164Z,71.50
2023-03-03T09:12:48.800Z,70.30
2023-03-03T09:15:50.695Z,68.75
2023-03-03T15:10:31.583Z,19.37
2023-03-03T15:13:35.310Z,20.77
2023-03-03T15:16:36.875Z,19.95
2023-03-03T15:20:23.558Z,19.38
2023-03-03T15:24:02.284Z,19.73
2023-03-03T15:27:12.309Z,18.83
2023-03-03T15:30:33.491Z,18.17
2023-03-03T15:33:57.503Z,18.08
2023-03-03T15:37:21.125Z,18.17
2023-03-03T15:40:28.533Z,18.63
2023-03-03T15:43:37.067Z,17.73
2023-03-03T15:46:58.142Z,16.55
2023-03-03T15:50:18.057Z,16.00
2023-03-03T15:53:57.073Z,15.80
2023-03-03T15:57:04.670Z,15.93
2023-03-03T20:23:10.450Z,8.50
2023-03-03T20:26:33.925Z,8.30
2023-03-03T20:29:57.806Z,8.23
2023-03-03T20:33:25.720Z,8.15
2023-03-03T20:36:32.865Z,7.72
2023-03-03T20:40:06.992Z,7.60
2023-03-03T20:43:38.259Z,6.72
2023-03-03T20:46:48.969Z,6.75
2023-03-03T20:50:04.297Z,6.95
2023-03-03T20:53:27.735Z,6.32
2023-03-03T20:56:35.992Z,6.95
2023-03-03T20:59:47.223Z,6.20
2023-03-03T21:03:15.515Z,6.28
2023-03-03T21:06:20.776Z,6.30
2023-03-03T21:09:27.532Z,5.65
2023-03-03T21:12:31.372Z,5.80
2023-03-03T21:15:35.805Z,5.20
2023-03-03T21:18:37.444Z,5.03
2023-03-03T21:21:39.867Z,5.10
2023-03-03T21:25:00.996Z,5.13
2023-03-03T21:28:24.560Z,4.90
2023-03-03T21:31:26.059Z,4.75
2023-03-03T21:34:29.228Z,4.43
2023-03-03T21:37:52.737Z,5.55
2023-03-03T21:41:01.806Z,4.30
2023-03-03T21:44:31.880Z,4.50
2023-03-03T21:47:33.476Z,4.20
2023-03-03T21:50:36.144Z,4.45
2023-03-03T21:53:37.662Z,4.00
2023-03-03T21:56:41.648Z,4.30
2023-03-03T21:59:43.356Z,5.18
2023-03-03T22:02:44.838Z,4.47
2023-03-03T22:05:50.631Z,4.47
2023-03-03T22:08:52.242Z,4.53
2023-03-03T22:11:53.737Z,4.20
2023-03-03T22:14:55.360Z,4.15
2023-03-03T22:17:56.866Z,4.43
2023-03-03T22:20:58.376Z,3.95
2023-03-03T22:23:59.921Z,4.10
2023-03-03T22:27:01.518Z,3.75
2023-03-03T22:30:03.285Z,4.35
2023-03-03T22:33:04.758Z,4.50
2023-03-03T22:36:06.791Z,4.68
2023-03-03T22:39:08.299Z,4.18
2023-03-03T22:42:11.076Z,4.25
2023-03-03T22:45:14.261Z,4.10
2023-03-03T22:48:15.847Z,3.75
2023-03-03T22:51:18.294Z,3.70
2023-03-03T22:54:19.781Z,4.10
2023-03-03T22:57:21.274Z,3.50
2023-03-03T23:00:22.768Z,4.35
2023-03-03T23:03:24.901Z,3.80
2023-03-03T23:06:26.443Z,3.30
2023-03-03T23:09:27.959Z,3.80
2023-03-03T23:12:29.678Z,3.47
2023-03-03T23:15:31.232Z,3.47
2023-03-03T23:18:32.698Z,3.25
2023-03-03T23:21:34.234Z,3.28
2023-03-03T23:24:35.723Z,2.97
2023-03-03T23:27:37.463Z,3.13
2023-03-03T23:30:38.951Z,2.88
2023-03-03T23:33:40.407Z,3.03
2023-03-03T23:36:41.901Z,3.00
2023-03-03T23:39:43.499Z,2.90
2023-03-03T23:42:45.027Z,2.97
2023-03-03T23:45:46.540Z,2.55
2023-03-03T23:48:48.204Z,2.50
2023-03-03T23:51:49.692Z,2.67
2023-03-03T23:54:52.950Z,2.45
2023-03-03T23:57:54.514Z,2.88
